Decoded Metar for KMOT (MINOT in ND, USA) (IATA:MOT) | Meteo·Mobile Aviation Weather
aviador You're here:

KMOT Decoded Metar

MINOT in ND, USA
Report Time2020-02-25 20:15:00
UTC Time2020-02-25 20:37:10
Flight Rules mvfr MVFR
Wind260° at 09 kt
W.Decomp.*RWY 26: 8.9 kt HW 1.6 kt LCW
RWY 31: 4.5 kt HW 7.8 kt LCW
Visibility9999 m
Phenomena:N/A
Clouds:Broken 026 Hf
Overcast 033 Hf
Expected CloudBase > 2,800 ft AGL from Temp-Dew spread
Ceiling2,600 ft
Temp00°C (ISA -12)
Dew Point-7°C (60% RH)
AAT-6.0°C
QNH1031 hPa
Density Alt-262 ft
Elevation1,703 ft
Report Wrong Elevation
Raw Report
KMOT 252015Z 26009KT 10SM BKN026 OVC033 00/M07 A3046 RMK AO2
T00001067=

Extra information for KMOT:More info

Metar Taf Metar & Taf Last 4 Metars F.Rules Stats Wind Profile Meteogram Temp Stats Airport Information Weather charts Add Link Nearby VenuesMetar ALERT Operation Metar Decoded Social comments

AIRNAV info for KMOT